EW5836 Weather Reports


Display with metric or nautical units.
time (UTC)temp
F
wind
direction
speed
MPH
gust
MPH
rain 1hr
in
rain 24hr
in
rain mn
in
humidity
%
barometer
mb
20200331000650 44 136 4.0 14.0 0.20 1.85 0.05 91 1016.2
20200330235648 44 82 0.0 10.0 0.16 1.81 0.04 92 1016.1
20200330235149 44 63 3.0 10.0 0.16 1.93 0.04 92 1016.0
20200330234649 45 84 1.0 11.0 0.12 1.89 0.03 92 1016.0
20200330234143 45 62 2.0 8.0 0.08 1.85 0.02 91 1015.9
20200330233644 45 114 2.0 15.0 0.08 1.85 0.02 91 1015.8
20200330233150 46 143 6.0 15.0 0.04 1.81 0.02 91 1015.7
20200330232650 46 153 7.0 11.0 0.04 1.81 0.02 91 1015.5
20200330232152 47 111 0.0 7.0 0.00 1.77 0.01 91 1015.4
20200330231647 47 63 1.0 6.0 0.00 1.77 0.01 90 1015.3
20200330231146 47 83 2.0 8.0 0.04 1.77 0.01 90 1015.2
20200330230648 47 73 0.0 8.0 0.04 1.77 0.01 90 1015.3
20200330230151 47 97 1.0 6.0 0.04 1.77 0.01 90 1015.2
20200330225652 47 131 1.0 8.0 0.04 1.77 0.01 90 1015.2
20200330225154 47 127 1.0 12.0 0.04 1.85 0.01 90 1015.1
20200330224648 47 64 6.0 12.0 0.08 1.85 0.01 90 1015.0
20200330224150 47 39 5.0 11.0 0.08 1.85 0.01 91 1015.0
20200330223649 47 113 3.0 10.0 0.08 1.85 0.01 91 1015.0
20200330223151 47 59 4.0 10.0 0.08 1.85 0.01 91 1014.9
20200330222650 48 118 0.0 7.0 0.08 1.85 0.01 91 1014.8
20200330222151 48 33 3.0 7.0 0.12 1.85 0.01 91 1014.7
20200330221647 48 37 0.0 6.0 0.12 1.85 0.01 91 1014.7
20200330221149 48 58 2.0 6.0 0.08 1.81 0.00 91 1014.8
20200330220652 48 34 1.0 7.0 0.12 1.81 0.00 92 1014.7
20200330220154 48 68 2.0 7.0 0.12 1.81 0.00 92 1014.8
20200330215656 48 45 2.0 9.0 0.12 1.81 0.00 92 1014.7
20200330215152 48 50 2.0 9.0 0.16 1.97 0.36 92 1014.6
20200330214649 48 77 1.0 4.0 0.12 1.93 0.35 93 1014.6
20200330214153 48 77 0.0 0.0 0.12 1.93 0.35 93 1014.6
20200330213653 48 77 0.0 4.0 0.16 1.93 0.35 92 1014.5
20200330213151 48 77 0.0 6.0 0.20 1.93 0.35 92 1014.4
20200330212649 48 54 2.0 10.0 0.24 1.93 0.35 93 1014.4
20200330212151 48 42 3.0 7.0 0.20 1.89 0.35 93 1014.4
20200330211649 48 56 2.0 7.0 0.24 1.89 0.35 93 1014.3
20200330211152 48 60 2.0 9.0 0.24 1.89 0.35 92 1014.3
20200330210651 48 54 4.0 9.0 0.20 1.85 0.34 92 1014.2
20200330210154 48 57 4.0 9.0 0.24 1.85 0.34 92 1014.1
20200330205652 48 74 3.0 8.0 0.24 1.85 0.34 92 1014.1
20200330205152 48 55 4.0 7.0 0.20 1.85 0.33 92 1014.0
20200330204651 48 74 0.0 6.0 0.20 1.85 0.33 92 1014.0
20200330204155 48 87 1.0 8.0 0.20 1.85 0.33 92 1013.9
20200330203652 48 335 1.0 8.0 0.16 1.81 0.32 91 1013.9
20200330203257 49 70 0.0 3.0 0.12 1.77 0.31 91 1013.8
20200330202648 49 60 0.0 4.0 0.08 1.73 0.31 91 1013.8
20200330202150 49 82 0.0 4.0 0.08 1.73 0.31 91 1013.7
20200330201647 49 4 0.0 0.0 0.04 1.69 0.30 90 1013.5
20200330201143 49 115 0.0 0.0 0.04 1.69 0.30 90 1013.5
20200330200650 49 115 0.0 0.0 0.04 1.69 0.30 90 1013.5
20200330200148 49 115 0.0 0.0 0.00 1.65 0.29 89 1013.4
20200330195653 49 116 0.0 2.0 0.00 1.65 0.29 89 1013.5
20200330195153 50 114 0.0 4.0 0.00 1.77 0.29 88 1013.4
20200330194650 50 99 1.0 8.0 0.00 1.77 0.29 87 1013.4
20200330194151 50 112 3.0 9.0 0.00 1.77 0.29 87 1013.3
20200330193649 50 152 3.0 9.0 0.00 1.77 0.29 87 1013.2
20200330193152 50 83 1.0 8.0 0.00 1.77 0.29 88 1013.2
20200330192649 50 106 0.0 1.0 0.00 1.77 0.29 88 1013.1
20200330192151 50 77 0.0 4.0 0.00 1.77 0.29 88 1013.0
20200330191651 50 114 0.0 4.0 0.00 1.77 0.29 88 1013.0
20200330191153 50 137 0.0 5.0 0.00 1.77 0.29 87 1012.8
20200330190652 50 137 1.0 5.0 0.00 1.77 0.29 87 1012.7
20200330190156 51 116 1.0 5.0 0.00 1.77 0.29 88 1012.7
20200330185657 51 116 0.0 3.0 0.00 1.77 0.29 88 1012.6
20200330185154 51 122 0.0 0.0 0.00 1.77 0.29 88 1012.5
20200330184651 51 118 0.0 0.0 0.00 1.77 0.29 87 1012.5
20200330184155 51 101 0.0 0.0 0.00 1.77 0.29 85 1012.4
20200330183650 51 359 0.0 0.0 0.00 1.77 0.29 85 1012.4
20200330183152 51 162 0.0 0.0 0.00 1.77 0.29 86 1012.4
20200330182652 51 162 0.0 0.0 0.00 1.77 0.29 87 1012.3
20200330182152 51 163 0.0 0.0 0.00 1.77 0.29 86 1012.2
20200330181651 51 162 0.0 0.0 0.00 1.77 0.29 86 1012.2
20200330181154 51 162 0.0 0.0 0.00 1.77 0.29 86 1012.2
20200330180649 52 162 0.0 0.0 0.00 1.77 0.29 85 1012.1
20200330180154 52 163 0.0 0.0 0.00 1.77 0.29 86 1012.0
20200330175652 52 164 0.0 0.0 0.00 1.77 0.29 85 1012.0
20200330175150 52 162 0.0 0.0 0.00 1.77 0.29 84 1011.9
20200330174649 52 162 0.0 0.0 0.00 1.77 0.29 83 1011.9
20200330174151 52 162 0.0 0.0 0.00 1.77 0.29 82 1011.8
20200330173649 52 162 0.0 0.0 0.00 1.77 0.29 81 1011.7
20200330173155 52 162 0.0 0.0 0.00 1.77 0.29 81 1011.7
20200330172649 52 163 0.0 0.0 0.00 1.77 0.29 81 1011.7
20200330172153 52 162 0.0 0.0 0.00 1.77 0.29 81 1011.6
20200330171655 52 163 0.0 0.0 0.00 1.77 0.29 81 1011.6
20200330171153 52 162 0.0 0.0 0.00 1.77 0.29 81 1011.6
20200330170650 52 162 0.0 0.0 0.00 1.77 0.29 81 1011.6
20200330170152 52 164 0.0 0.0 0.00 1.77 0.29 82 1011.5
20200330165653 52 163 0.0 0.0 0.00 1.77 0.29 82 1011.5
20200330165146 52 162 0.0 0.0 0.00 1.77 0.29 82 1011.6
20200330164649 52 162 0.0 0.0 0.00 1.77 0.29 82 1011.5
20200330164151 52 162 0.0 0.0 0.00 1.77 0.29 81 1011.4
20200330163651 52 162 0.0 0.0 0.00 1.77 0.29 81 1011.4
20200330163151 52 163 0.0 0.0 0.00 1.77 0.29 81 1011.3
20200330162657 52 162 0.0 0.0 0.00 1.77 0.29 80 1011.4
20200330162153 52 163 0.0 0.0 0.00 1.77 0.29 81 1011.4
20200330161645 52 162 0.0 0.0 0.00 1.77 0.29 81 1011.4
20200330161153 52 164 0.0 0.0 0.00 1.77 0.29 81 1011.3
20200330160655 52 162 0.0 0.0 0.00 1.77 0.29 80 1011.3
20200330160142 52 163 0.0 0.0 0.00 1.77 0.29 79 1011.3
20200330155653 52 163 0.0 0.0 0.00 1.77 0.29 80 1011.3
20200330155152 52 159 0.0 3.0 0.00 1.77 0.29 80 1011.3
20200330154654 52 162 1.0 3.0 0.00 1.77 0.29 80 1011.3
20200330154147 52 139 0.0 3.0 0.00 1.77 0.29 79 1011.2
20200330153647 53 154 0.0 3.0 0.00 1.77 0.29 80 1011.3
20200330153148 53 151 0.0 5.0 0.00 1.77 0.29 80 1011.3
20200330152649 53 159 1.0 6.0 0.00 1.77 0.29 81 1011.3
20200330152152 53 147 0.0 6.0 0.00 1.77 0.29 80 1011.2
20200330151650 53 152 1.0 7.0 0.00 1.77 0.29 78 1011.2
20200330151154 53 140 2.0 7.0 0.00 1.77 0.29 78 1011.1
20200330150643 53 154 1.0 7.0 0.00 1.77 0.29 77 1011.1
20200330150146 53 108 4.0 7.0 0.00 1.77 0.29 77 1011.2
20200330145652 53 133 3.0 8.0 0.00 1.77 0.29 78 1011.1
20200330145152 53 131 4.0 8.0 0.00 1.77 0.29 77 1011.1
20200330144650 53 145 3.0 7.0 0.00 1.77 0.29 76 1011.1
20200330144151 54 116 0.0 7.0 0.00 1.77 0.29 76 1011.2
20200330143647 54 137 1.0 7.0 0.00 1.77 0.29 75 1011.2
20200330143149 54 118 2.0 8.0 0.00 1.77 0.29 76 1011.1
20200330142655 54 135 4.0 9.0 0.00 1.77 0.29 74 1011.2
20200330142141 55 141 4.0 9.0 0.00 1.77 0.29 74 1011.2
20200330141648 54 112 0.0 7.0 0.00 1.77 0.29 73 1011.2
20200330141152 54 108 2.0 8.0 0.00 1.77 0.29 74 1011.3
20200330140650 54 129 5.0 8.0 0.00 1.77 0.29 75 1011.3
20200330140153 54 127 3.0 7.0 0.00 1.77 0.29 76 1011.4
20200330135651 54 138 2.0 6.0 0.00 1.77 0.29 78 1011.4
20200330135151 53 105 1.0 6.0 0.00 1.77 0.29 80 1011.4
20200330134651 53 88 1.0 5.0 0.00 1.77 0.29 79 1011.5
20200330134152 53 118 1.0 5.0 0.00 1.77 0.29 82 1011.6
20200330133648 52 125 0.0 2.0 0.00 1.77 0.29 84 1011.6
20200330133151 52 4 0.0 0.0 0.00 1.77 0.29 87 1011.7
20200330132649 51 4 0.0 0.0 0.00 1.77 0.29 86 1011.7
20200330132151 51 359 0.0 0.0 0.00 1.77 0.29 88 1011.8
20200330131645 51 354 0.0 0.0 0.00 1.77 0.29 89 1011.8
20200330131144 51 354 0.0 0.0 0.00 1.77 0.29 88 1011.9
20200330130648 51 354 0.0 0.0 0.00 1.77 0.29 87 1011.9
20200330130149 51 354 0.0 0.0 0.00 1.77 0.29 87 1011.9
20200330125650 51 354 0.0 0.0 0.00 1.77 0.29 86 1012.0
20200330125149 51 359 0.0 0.0 0.00 1.77 0.29 85 1012.0
20200330124648 51 354 0.0 0.0 0.00 1.77 0.29 85 1012.0
20200330124153 52 354 0.0 0.0 0.00 1.77 0.29 85 1012.0
20200330123649 51 354 0.0 0.0 0.00 1.77 0.29 83 1012.0
20200330123148 51 359 0.0 0.0 0.00 1.77 0.29 81 1012.1
20200330122649 51 354 0.0 0.0 0.00 1.77 0.29 82 1012.1
20200330122151 51 354 0.0 0.0 0.00 1.77 0.29 82 1012.1
20200330121649 51 354 0.0 1.0 0.00 1.77 0.29 81 1012.1
20200330121152 52 359 0.0 1.0 0.00 1.77 0.29 82 1012.1
20200330120650 51 15 0.0 0.0 0.00 1.77 0.29 82 1012.2
20200330120151 51 16 0.0 8.0 0.00 1.77 0.29 81 1012.2
20200330115650 51 15 1.0 8.0 0.00 1.77 0.29 80 1012.3
20200330115150 51 359 3.0 8.0 0.00 1.77 0.29 81 1012.3
20200330114650 51 8 3.0 8.0 0.00 1.77 0.29 82 1012.3
20200330114148 51 63 0.0 8.0 0.00 1.77 0.29 84 1012.2
20200330113646 51 4 3.0 8.0 0.04 1.77 0.29 85 1012.3
20200330113145 50 327 1.0 6.0 0.04 1.77 0.29 85 1012.3
20200330112646 50 339 1.0 9.0 0.04 1.77 0.29 86 1012.4
20200330112149 50 343 2.0 11.0 0.04 1.77 0.29 86 1012.4
20200330111650 50 350 5.0 11.0 0.08 1.77 0.29 87 1012.5
20200330111156 50 19 5.0 9.0 0.08 1.77 0.29 88 1012.5
20200330110649 49 359 4.0 6.0 0.08 1.77 0.29 88 1012.6
20200330110150 49 16 2.0 6.0 0.08 1.77 0.29 89 1012.6
20200330105647 49 16 3.0 8.0 0.08 1.77 0.29 89 1012.6
20200330105142 49 51 2.0 8.0 0.12 1.77 0.29 90 1012.7
20200330104658 49 53 0.0 5.0 0.12 1.77 0.29 90 1012.7
20200330103650 49 54 1.0 6.0 0.12 1.73 0.28 90 1012.8
20200330103146 48 49 0.0 6.0 0.12 1.73 0.28 90 1012.7
20200330102654 48 52 0.0 7.0 0.12 1.73 0.28 90 1012.7
20200330102146 48 58 0.0 6.0 0.16 1.73 0.28 91 1012.7
20200330101655 48 63 2.0 6.0 0.12 1.69 0.28 91 1012.8
20200330101146 48 64 2.0 5.0 0.12 1.69 0.28 92 1012.7
20200330100654 48 66 0.0 6.0 0.12 1.69 0.28 93 1012.7
20200330100246 48 51 1.0 6.0 0.16 1.69 0.28 95 1012.8
20200330095655 48 40 0.0 5.0 0.16 1.69 0.28 95 1012.7
20200330095154 48 36 2.0 7.0 0.12 1.65 0.27 96 1012.7
20200330094654 48 24 2.0 7.0 0.12 1.65 0.27 96 1012.7
20200330094157 48 56 1.0 8.0 0.12 1.65 0.27 97 1012.7
20200330093653 48 21 4.0 9.0 0.12 1.61 0.26 96 1012.6
20200330093153 49 58 1.0 9.0 0.12 1.61 0.26 97 1012.6
20200330092652 49 145 0.0 0.0 0.08 1.57 0.25 97 1012.6
20200330092154 49 147 0.0 0.0 0.08 1.57 0.25 97 1012.5
20200330091652 49 146 0.0 0.0 0.08 1.57 0.25 97 1012.5
20200330091153 49 145 0.0 2.0 0.08 1.57 0.25 97 1012.4
20200330090651 49 180 0.0 2.0 0.12 1.57 0.25 97 1012.3
20200330090145 49 64 0.0 0.0 0.08 1.54 0.24 96 1012.2
20200330085657 49 64 0.0 0.0 0.08 1.54 0.24 97 1012.2
20200330085154 49 65 0.0 0.0 0.08 1.54 0.24 96 1012.2
20200330084653 49 65 0.0 0.0 0.12 1.54 0.24 96 1012.1
20200330084153 49 65 0.0 0.0 0.12 1.54 0.24 96 1012.0
20200330083648 49 63 0.0 0.0 0.08 1.50 0.24 96 1012.0
20200330083143 49 65 0.0 0.0 0.08 1.50 0.24 96 1012.0
20200330082654 49 66 0.0 0.0 0.12 1.50 0.24 96 1011.9
20200330082153 48 65 0.0 0.0 0.12 1.50 0.24 96 1011.8
20200330081650 48 65 0.0 0.0 0.16 1.50 0.24 96 1011.8
20200330081153 48 65 0.0 0.0 0.16 1.50 0.24 96 1011.8
20200330080646 48 65 0.0 0.0 0.16 1.46 0.23 96 1011.7
20200330080141 48 65 0.0 0.0 0.20 1.46 0.23 96 1011.7
20200330075653 48 65 0.0 0.0 0.20 1.46 0.23 95 1011.6
20200330075155 48 65 0.0 0.0 0.24 1.46 0.23 96 1011.5
20200330074652 48 66 0.0 0.0 0.24 1.42 0.22 95 1011.4
20200330074154 49 64 0.0 0.0 0.28 1.42 0.22 95 1011.3
20200330073652 49 66 0.0 0.0 0.31 1.42 0.22 95 1011.3
20200330073150 49 64 0.0 0.0 0.35 1.42 0.22 95 1011.2
20200330072647 49 64 0.0 0.0 0.31 1.38 0.21 95 1011.1
20200330072149 49 65 0.0 0.0 0.35 1.38 0.21 95 1011.0
20200330071646 49 64 0.0 0.0 0.31 1.34 0.20 94 1011.0
20200330071146 49 65 0.0 1.0 0.35 1.34 0.20 94 1010.9
20200330070643 49 345 0.0 3.0 0.31 1.30 0.20 94 1010.9
20200330070154 49 337 0.0 4.0 0.31 1.26 0.19 94 1010.7
20200330065645 49 337 0.0 4.0 0.31 1.26 0.19 94 1010.6
20200330065143 49 337 0.0 3.0 0.28 1.22 0.18 94 1010.6
20200330064642 49 337 0.0 3.0 0.24 1.18 0.17 94 1010.6
20200330064143 49 337 0.0 2.0 0.24 1.14 0.17 94 1010.6
20200330063652 49 359 0.0 0.0 0.20 1.10 0.16 94 1010.6
20200330062650 49 337 0.0 2.0 0.20 1.06 0.15 93 1010.5
20200330062152 49 359 0.0 2.0 0.16 1.02 0.14 93 1010.5
20200330061651 49 340 0.0 1.0 0.16 1.02 0.14 93 1010.5
20200330061152 49 359 0.0 2.0 0.12 0.98 0.13 93 1010.3
20200330060652 49 340 0.0 2.0 0.12 0.98 0.13 93 1010.3
20200330060151 49 340 0.0 3.0 0.08 0.94 0.13 93 1010.2
20200330055651 49 359 0.0 6.0 0.08 0.94 0.13 93 1010.1
20200330055151 49 359 0.0 6.0 0.08 0.94 0.13 94 1010.0
20200330054648 49 270 1.0 6.0 0.08 0.94 0.13 94 1010.0
20200330054147 49 297 1.0 9.0 0.04 0.91 0.12 95 1010.0
20200330053644 48 323 2.0 9.0 0.04 0.91 0.12 95 1010.0
20200330053143 48 299 0.0 4.0 0.00 0.87 0.11 95 1009.9
20200330052650 48 296 0.0 3.0 0.00 0.87 0.11 95 1009.8
20200330052150 48 256 0.0 7.0 0.00 0.87 0.11 95 1009.8
20200330051648 48 251 1.0 7.0 0.00 0.87 0.11 95 1009.7
20200330051149 48 256 0.0 4.0 0.00 0.87 0.11 95 1009.7
20200330050648 48 323 0.0 4.0 0.00 0.87 0.11 95 1009.7
20200330050152 48 330 0.0 0.0 0.00 0.87 0.11 95 1009.7
20200330045649 48 331 0.0 0.0 0.04 0.87 0.11 95 1009.6
20200330045214 48 329 0.0 0.0 0.04 0.87 0.11 95 1009.7
20200330044654 48 329 0.0 0.0 0.04 0.87 0.11 95 1009.7
20200330044153 48 329 0.0 0.0 0.08 0.87 0.11 95 1009.7
20200330043646 48 330 0.0 0.0 0.08 0.87 0.11 95 1009.7
20200330043144 48 330 0.0 0.0 0.12 0.87 0.11 95 1009.7
20200330042648 48 330 0.0 0.0 0.16 0.87 0.11 94 1009.6
20200330042152 48 329 0.0 0.0 0.16 0.87 0.11 94 1009.4
20200330041649 49 359 0.0 0.0 0.20 0.87 0.11 94 1009.4
20200330041148 49 329 0.0 0.0 0.20 0.87 0.11 94 1009.5
20200330040641 49 329 0.0 0.0 0.20 0.87 0.11 94 1009.5
20200330040144 48 330 0.0 0.0 0.20 0.87 0.11 94 1009.5
20200330035657 48 329 0.0 0.0 0.20 0.83 0.10 94 1009.5
20200330035157 48 330 0.0 5.0 0.20 0.83 0.10 94 1009.6
20200330034650 48 330 0.0 5.0 0.20 0.83 0.10 94 1009.6
20200330034152 48 328 0.0 0.0 0.20 0.79 0.09 94 1009.7
20200330033646 49 359 0.0 0.0 0.20 0.79 0.09 94 1009.8
20200330033143 49 359 0.0 0.0 0.16 0.75 0.09 93 1009.8
20200330032655 49 328 0.0 0.0 0.12 0.71 0.08 93 1009.8
20200330032151 49 328 0.0 0.0 0.16 0.71 0.08 93 1009.7
20200330031648 49 328 0.0 0.0 0.12 0.67 0.07 93 1009.6
20200330031147 49 327 0.0 0.0 0.12 0.67 0.07 93 1009.6
20200330030644 49 328 0.0 0.0 0.12 0.67 0.07 93 1009.5
20200330030142 49 345 0.0 0.0 0.12 0.67 0.07 93 1009.5
20200330025655 49 345 0.0 0.0 0.08 0.63 0.06 93 1009.4
20200330025154 49 345 0.0 5.0 0.08 0.63 0.06 93 1009.4
20200330024646 49 359 0.0 5.0 0.08 0.63 0.06 93 1009.3
20200330024142 49 307 0.0 0.0 0.04 0.59 0.06 93 1009.3
20200330023657 49 307 0.0 0.0 0.04 0.59 0.06 93 1009.4
20200330023158 49 307 0.0 0.0 0.04 0.59 0.06 92 1009.4
20200330022655 49 307 0.0 0.0 0.04 0.59 0.06 92 1009.3
20200330022151 49 308 0.0 0.0 0.00 0.55 0.05 92 1009.3
20200330021643 49 256 0.0 0.0 0.00 0.55 0.05 91 1009.2
20200330021155 49 256 0.0 0.0 0.00 0.55 0.05 91 1009.3
20200330020654 49 256 0.0 4.0 0.00 0.55 0.05 91 1009.2
20200330020156 49 256 0.0 5.0 0.00 0.55 0.05 91 1009.2
20200330015655 49 237 1.0 5.0 0.00 0.55 0.05 91 1009.1
20200330015152 49 303 0.0 0.0 0.00 0.55 0.05 91 1009.1
20200330014648 49 304 0.0 0.0 0.00 0.55 0.05 92 1009.1
20200330014148 49 303 0.0 0.0 0.00 0.55 0.05 92 1009.1
20200330013647 49 302 0.0 0.0 0.00 0.55 0.05 92 1009.2
20200330013150 49 359 0.0 0.0 0.00 0.55 0.05 91 1009.2
20200330012645 49 303 0.0 0.0 0.00 0.55 0.05 91 1009.2
20200330012145 49 274 0.0 0.0 0.00 0.55 0.05 91 1009.2
20200330011641 49 274 0.0 0.0 0.00 0.55 0.05 91 1009.4
20200330011145 49 273 0.0 0.0 0.00 0.55 0.05 92 1009.4
20200330010700 49 274 0.0 0.0 0.00 0.55 0.05 92 1009.5
20200330010143 49 268 0.0 0.0 0.00 0.55 0.05 92 1009.5
20200330005656 49 162 0.0 0.0 0.00 0.55 0.05 92 1009.5
20200330005155 49 158 0.0 0.0 0.04 0.55 0.05 92 1009.4
20200330004651 49 158 0.0 0.0 0.04 0.55 0.05 93 1009.4
20200330004156 49 185 0.0 0.0 0.04 0.55 0.05 93 1009.3
20200330003646 49 185 0.0 0.0 0.04 0.55 0.05 92 1009.3
20200330003148 49 184 0.0 0.0 0.04 0.55 0.05 92 1009.2
20200330002649 49 184 0.0 0.0 0.04 0.55 0.05 92 1009.2
20200330002149 49 184 0.0 0.0 0.04 0.55 0.05 91 1009.3
20200330001659 49 185 0.0 0.0 0.08 0.55 0.05 91 1009.5
20200330001157 49 184 0.0 5.0 0.08 0.55 0.05 91 1009.6